createdAt,value
2023-08-27T00:00:09.031Z,14.3
2023-08-27T00:05:08.576Z,14.3
2023-08-27T00:10:08.788Z,14.3
2023-08-27T00:15:09.069Z,14.3
2023-08-27T00:20:08.282Z,14.3
2023-08-27T00:25:08.467Z,14.3
2023-08-27T00:30:08.592Z,14.3
2023-08-27T00:35:08.782Z,14.1
2023-08-27T00:40:08.987Z,14.1
2023-08-27T00:45:08.159Z,14.1
2023-08-27T00:50:08.360Z,14.1
2023-08-27T00:55:08.520Z,14.0
2023-08-27T01:00:08.687Z,14.0
2023-08-27T01:05:12.453Z,14.0
2023-08-27T01:10:08.660Z,14.0
2023-08-27T01:15:08.846Z,13.8
2023-08-27T01:20:09.080Z,13.8
2023-08-27T01:25:08.267Z,14.0
2023-08-27T01:30:08.460Z,14.0
2023-08-27T01:35:08.639Z,14.1
2023-08-27T01:40:08.824Z,14.1
2023-08-27T01:45:09.040Z,13.8
2023-08-27T01:50:08.352Z,13.8
2023-08-27T01:55:08.668Z,14.1
2023-08-27T02:00:08.993Z,14.1
2023-08-27T02:05:08.249Z,14.3
2023-08-27T02:10:08.470Z,14.3
2023-08-27T02:15:08.729Z,14.5
2023-08-27T02:20:08.302Z,14.5
2023-08-27T02:25:08.642Z,14.6
2023-08-27T02:30:08.837Z,14.6
2023-08-27T02:35:09.024Z,14.5
2023-08-27T02:40:08.086Z,14.5
2023-08-27T02:45:08.261Z,14.3
2023-08-27T02:50:08.408Z,14.3
2023-08-27T02:55:08.631Z,14.0
2023-08-27T03:00:08.825Z,14.0
2023-08-27T03:05:09.084Z,14.0
2023-08-27T03:10:08.326Z,14.0
2023-08-27T03:15:08.533Z,14.0
2023-08-27T03:20:08.748Z,14.0
2023-08-27T03:25:08.907Z,13.8
2023-08-27T03:30:09.118Z,13.8
2023-08-27T03:35:08.410Z,13.8
2023-08-27T03:40:08.624Z,13.8
2023-08-27T03:45:08.831Z,14.0
2023-08-27T03:50:08.985Z,14.0
2023-08-27T03:55:08.162Z,14.1
2023-08-27T04:00:08.311Z,14.1
2023-08-27T04:05:02.770Z,14.3
2023-08-27T04:10:04.608Z,14.3
2023-08-27T04:15:02.851Z,14.3
2023-08-27T04:20:03.137Z,14.3
2023-08-27T04:25:02.347Z,14.3
2023-08-27T04:30:02.631Z,14.3
2023-08-27T04:35:02.793Z,14.3
2023-08-27T04:40:03.128Z,14.5
2023-08-27T04:45:02.598Z,14.5
2023-08-27T04:50:03.039Z,14.3
2023-08-27T04:55:02.457Z,14.3
2023-08-27T05:00:02.716Z,14.3
2023-08-27T05:05:02.946Z,14.3
2023-08-27T05:10:02.859Z,14.1
2023-08-27T05:15:04.690Z,14.3
2023-08-27T05:20:02.926Z,14.3
2023-08-27T05:25:03.315Z,14.0
2023-08-27T05:30:03.606Z,13.3
2023-08-27T05:35:05.003Z,13.3
2023-08-27T05:40:02.196Z,12.8
2023-08-27T05:45:02.642Z,13.3
2023-08-27T05:50:03.019Z,13.1
2023-08-27T05:55:02.313Z,13.1
2023-08-27T06:00:02.585Z,12.8
2023-08-27T06:05:02.889Z,12.8
2023-08-27T06:10:03.182Z,12.8
2023-08-27T06:15:02.723Z,13.5
2023-08-27T06:20:03.368Z,13.5
2023-08-27T06:25:04.268Z,13.1
2023-08-27T06:30:03.322Z,13.5
2023-08-27T06:35:02.690Z,13.1
2023-08-27T06:40:04.206Z,13.6
2023-08-27T06:45:04.087Z,13.6
2023-08-27T06:50:04.836Z,13.6
2023-08-27T06:55:04.328Z,13.8
2023-08-27T07:00:04.546Z,13.8
2023-08-27T07:05:02.801Z,13.6
2023-08-27T07:10:03.138Z,13.6
2023-08-27T07:15:02.438Z,13.8
2023-08-27T07:20:04.147Z,13.8
2023-08-27T07:25:02.491Z,14.3
2023-08-27T07:30:02.825Z,14.3
2023-08-27T07:35:03.093Z,14.1
2023-08-27T07:40:02.472Z,14.1
2023-08-27T07:45:02.794Z,14.5
2023-08-27T07:50:03.088Z,14.5
2023-08-27T07:55:02.479Z,14.3
2023-08-27T08:00:03.139Z,14.3
2023-08-27T08:05:02.448Z,14.1
2023-08-27T08:10:02.730Z,14.1
2023-08-27T08:15:03.080Z,14.1
2023-08-27T08:20:02.424Z,14.1
2023-08-27T08:25:02.744Z,14.5
2023-08-27T08:30:03.026Z,14.5
2023-08-27T08:35:02.674Z,14.6
2023-08-27T08:40:03.145Z,14.6
2023-08-27T08:45:02.494Z,14.8
2023-08-27T08:50:02.889Z,14.8
2023-08-27T08:55:03.166Z,15.8
2023-08-27T09:00:02.306Z,15.8
2023-08-27T09:05:02.813Z,16.6
2023-08-27T09:10:03.349Z,16.6
2023-08-27T09:15:02.675Z,17.7
2023-08-27T09:20:03.038Z,18.2
2023-08-27T09:25:02.483Z,19.7
2023-08-27T09:30:02.936Z,18.2
2023-08-27T09:35:02.443Z,19.1
2023-08-27T09:40:02.906Z,19.1
2023-08-27T09:45:02.202Z,19.1
2023-08-27T09:50:02.413Z,19.1
2023-08-27T09:55:02.862Z,19.2
2023-08-27T10:00:03.141Z,19.2
2023-08-27T10:05:02.551Z,19.2
2023-08-27T10:10:02.891Z,19.2
2023-08-27T10:15:03.250Z,20.0
2023-08-27T10:20:02.617Z,20.0
2023-08-27T10:25:04.606Z,20.2
2023-08-27T10:30:02.852Z,20.2
2023-08-27T10:35:03.148Z,20.2
2023-08-27T10:40:02.533Z,20.2
2023-08-27T10:45:02.891Z,20.7
2023-08-27T10:50:03.100Z,20.7
2023-08-27T10:55:03.664Z,20.2
2023-08-27T11:00:04.793Z,20.2
2023-08-27T11:05:02.984Z,19.5
2023-08-27T11:10:02.378Z,19.5
2023-08-27T11:15:12.603Z,19.1
2023-08-27T11:20:03.018Z,21.2
2023-08-27T11:25:07.356Z,21.6
2023-08-27T11:30:02.634Z,21.6
2023-08-27T11:35:03.186Z,21.7
2023-08-27T11:40:02.676Z,21.7
2023-08-27T11:45:02.996Z,20.6
2023-08-27T11:50:02.307Z,20.6
2023-08-27T11:55:04.708Z,20.3
2023-08-27T12:00:03.117Z,20.3
2023-08-27T12:05:02.458Z,19.5
2023-08-27T12:10:07.944Z,19.1
2023-08-27T12:15:02.268Z,19.0
2023-08-27T12:20:02.802Z,18.5
2023-08-27T12:25:03.147Z,17.7
2023-08-27T12:30:02.475Z,17.5
2023-08-27T12:35:02.914Z,17.0
2023-08-27T12:40:02.185Z,16.2
2023-08-27T12:45:02.451Z,15.8
2023-08-27T12:50:03.285Z,15.3
2023-08-27T12:55:02.603Z,13.3
2023-08-27T13:00:02.942Z,12.6
2023-08-27T13:05:02.378Z,12.5
2023-08-27T13:10:02.619Z,12.3
2023-08-27T13:15:02.940Z,12.6
2023-08-27T13:20:02.219Z,12.8
2023-08-27T13:25:02.473Z,13.5
2023-08-27T13:30:02.673Z,13.8
2023-08-27T13:35:03.005Z,13.8
2023-08-27T13:40:02.547Z,14.3
2023-08-27T13:45:02.849Z,14.3
2023-08-27T13:50:03.160Z,14.6
2023-08-27T13:55:02.436Z,14.6
2023-08-27T14:00:02.681Z,14.3
2023-08-27T14:05:02.935Z,15.1
2023-08-27T14:10:03.226Z,15.5
2023-08-27T14:15:02.993Z,15.5
2023-08-27T14:20:02.276Z,15.5
2023-08-27T14:25:02.516Z,15.5
2023-08-27T14:30:03.098Z,15.5
2023-08-27T14:35:02.446Z,14.5
2023-08-27T14:40:02.990Z,16.6
2023-08-27T14:45:02.458Z,17.0
2023-08-27T14:50:02.837Z,19.5
2023-08-27T14:55:05.911Z,21.2
2023-08-27T15:00:02.787Z,21.2
2023-08-27T15:05:03.175Z,20.3
2023-08-27T15:10:02.365Z,20.3
2023-08-27T15:15:03.650Z,20.7
2023-08-27T15:20:05.019Z,20.7
2023-08-27T15:25:02.363Z,20.8
2023-08-27T15:30:02.769Z,20.8
2023-08-27T15:35:03.145Z,20.1
2023-08-27T15:40:02.448Z,20.1
2023-08-27T15:45:02.769Z,20.7
2023-08-27T15:50:03.163Z,20.7
2023-08-27T15:55:02.669Z,20.2
2023-08-27T16:00:03.097Z,19.7
2023-08-27T16:05:02.455Z,17.7
2023-08-27T16:10:03.222Z,17.7
2023-08-27T16:15:02.866Z,17.2
2023-08-27T16:20:04.793Z,17.1
2023-08-27T16:25:03.189Z,17.2
2023-08-27T16:30:02.510Z,17.2
2023-08-27T16:35:03.221Z,17.3
2023-08-27T16:40:02.693Z,17.2
2023-08-27T16:45:03.208Z,18.2
2023-08-27T16:50:04.137Z,17.2
2023-08-27T16:55:02.897Z,16.7
2023-08-27T17:00:02.622Z,16.7
2023-08-27T17:05:03.018Z,17.1
2023-08-27T17:10:06.571Z,16.6
2023-08-27T17:15:03.703Z,16.6
2023-08-27T17:20:04.353Z,15.8
2023-08-27T17:25:02.762Z,15.8
2023-08-27T17:30:03.609Z,16.3
2023-08-27T17:35:03.051Z,16.3
2023-08-27T17:40:02.680Z,17.0
2023-08-27T17:45:03.160Z,17.0
2023-08-27T17:50:02.464Z,16.0
2023-08-27T17:55:03.232Z,16.0
2023-08-27T18:00:02.938Z,15.8
2023-08-27T18:05:02.781Z,15.8
2023-08-27T18:10:03.302Z,15.1
2023-08-27T18:15:02.907Z,15.1
2023-08-27T18:20:03.325Z,14.8
2023-08-27T18:25:02.787Z,14.8
2023-08-27T18:30:03.247Z,14.5
2023-08-27T18:35:02.516Z,14.5
2023-08-27T18:40:03.154Z,14.3
2023-08-27T18:45:07.180Z,14.3
2023-08-27T18:50:04.912Z,14.1
2023-08-27T18:55:03.243Z,14.0
2023-08-27T19:00:02.895Z,14.0
2023-08-27T19:05:03.269Z,14.0
2023-08-27T19:10:05.450Z,14.0
2023-08-27T19:15:02.730Z,13.8
2023-08-27T19:20:03.148Z,13.8
2023-08-27T19:25:02.640Z,13.6
2023-08-27T19:30:03.243Z,13.6
2023-08-27T19:35:02.752Z,13.6
2023-08-27T19:40:03.115Z,13.6
2023-08-27T19:45:02.719Z,13.6
2023-08-27T19:50:03.723Z,13.6
2023-08-27T19:55:04.373Z,13.6
2023-08-27T20:00:03.810Z,13.6
2023-08-27T20:05:03.959Z,13.5
2023-08-27T20:10:02.575Z,13.5
2023-08-27T20:15:03.892Z,13.6
2023-08-27T20:20:03.973Z,13.6
2023-08-27T20:25:02.402Z,13.6
2023-08-27T20:30:03.292Z,13.6
2023-08-27T20:35:02.835Z,13.6
2023-08-27T20:40:03.704Z,13.6
2023-08-27T20:45:04.076Z,13.5
2023-08-27T20:50:02.481Z,13.5
2023-08-27T20:55:03.398Z,13.5
2023-08-27T21:00:02.845Z,13.5
2023-08-27T21:05:03.206Z,13.5
2023-08-27T21:10:03.368Z,13.5
2023-08-27T21:15:03.212Z,13.5
2023-08-27T21:20:03.025Z,13.5
2023-08-27T21:25:02.338Z,13.5
2023-08-27T21:30:02.629Z,13.5
2023-08-27T21:35:04.577Z,13.5
2023-08-27T21:40:03.047Z,13.5
2023-08-27T21:45:02.480Z,13.6
2023-08-27T21:50:02.844Z,13.6
2023-08-27T21:55:03.480Z,14.0
2023-08-27T22:00:03.260Z,14.0
2023-08-27T22:05:15.437Z,14.1
2023-08-27T22:10:08.665Z,14.1
2023-08-27T22:15:08.884Z,14.1
2023-08-27T22:20:09.350Z,14.1
2023-08-27T22:25:08.425Z,14.0
2023-08-27T22:30:08.526Z,14.0
2023-08-27T22:35:08.662Z,13.8
2023-08-27T22:40:08.808Z,13.8
2023-08-27T22:45:08.958Z,13.6
2023-08-27T22:50:08.165Z,13.6
2023-08-27T22:55:08.419Z,13.5
2023-08-27T23:01:07.594Z,13.5
2023-08-27T23:05:08.792Z,13.3
2023-08-27T23:10:08.322Z,13.3
2023-08-27T23:15:08.444Z,13.1
2023-08-27T23:20:08.547Z,13.1
2023-08-27T23:25:08.677Z,13.1
2023-08-27T23:30:08.805Z,13.1
2023-08-27T23:35:08.951Z,13.1
2023-08-27T23:40:08.096Z,13.1
2023-08-27T23:45:08.256Z,13.1
2023-08-27T23:50:08.473Z,13.1
2023-08-27T23:55:08.652Z,13.1
